Ionia, MI

2:11 AM EST on November 15, 2019 (GMT -0500)
Ionia

Weather History for KY70 - September, 2019

Change the Weather History Date:

Thursday, September 26, 2019

  Actual Average (KGRR) Record (KGRR)
Temperature  
Mean Temperature 58 °F -  
Max Temperature 68 °F 68 °F 92 °F (2017)
Min Temperature 49 °F 47 °F 30 °F (1947)
Degree Days  
Heating Degree Days 6    
Growing Degree Days 8 (Base 50)    
Moisture  
Dew Point 45 °F    
Average Humidity 57    
Maximum Humidity 83    
Minimum Humidity 31    
Precipitation  
Precipitation 0.00 in - - ()
Sea Level Pressure  
Sea Level Pressure 29.87 in    
Wind  
Wind Speed 9 mph ()    
Max Wind Speed 22 mph    
Max Gust Speed 28 mph    
Visibility 10.0 miles    
Events      
Averages and records for this station are not official NWS values.
T = Trace of Precipitation, MM = Missing Value Source: Averaged Metar Reports

Daily Weather History Graph

Daily Weather History Graph

Search for Another Location

Airport or City:

Astronomy

Sep. 26, 2019 Rise Set
Actual Time 7:31 AM EDT 7:30 PM EDT
Civil Twilight 7:03 AM EDT 7:58 PM EDT
Nautical Twilight 6:30 AM EDT 8:31 PM EDT
Astronomical Twilight 5:56 AM EDT 9:05 PM EDT
Moon 4:31 AM EDT (9/26) 6:48 PM EDT (9/26)
Length of Visible Light 12h 55m
Length of Day
11h 59m
Waning Crescent, 7% of the Moon is Illuminated
Sep 26
Waning Crescent
Sep 28
New
Oct 5
First Quarter
Oct 13
Full
Oct 21
Last Quarter

Hourly Weather History & Observations

Time (EDT) Temp. Dew Point Humidity Pressure Visibility Wind Dir Wind Speed Gust Speed Precip Events Conditions
12:15 AM 65.8 °F 57.9 °F 76% 29.79 in 10.0 mi West 8.1 mph - N/A   Overcast
12:16 AM 65.8 °F 57.7 °F 75% 29.79 in 10.0 mi West 6.9 mph - N/A   Overcast
12:35 AM 65.3 °F 57.6 °F 76% 29.78 in 10.0 mi West 4.6 mph - N/A   Overcast
12:36 AM 65.3 °F 57.6 °F 76% 29.78 in 10.0 mi West 4.6 mph - N/A   Overcast
12:55 AM 64.6 °F 56.5 °F 75% 29.79 in 10.0 mi West 6.9 mph - N/A   Overcast
1:00 AM 64.4 °F 55.8 °F 73% 29.79 in 10.0 mi WSW 6.9 mph - N/A   Overcast
1:18 AM 65.5 °F 54.1 °F 67% 29.79 in 10.0 mi West 8.1 mph - N/A   Overcast
1:36 AM 65.5 °F 53.8 °F 66% 29.79 in 10.0 mi West 8.1 mph - N/A   Overcast
1:55 AM 64.8 °F 54.0 °F 68% 29.78 in 10.0 mi West 5.8 mph - N/A   Overcast
2:15 AM 63.3 °F 53.4 °F 70% 29.76 in 10.0 mi SSW 4.6 mph - N/A   Mostly Cloudy
2:39 AM 62.1 °F 53.8 °F 74% 29.77 in 10.0 mi WSW 6.9 mph - N/A   Mostly Cloudy
2:57 AM 61.7 °F 52.9 °F 73% 29.78 in 10.0 mi WSW 8.1 mph - N/A   Scattered Clouds
3:15 AM 61.3 °F 52.7 °F 73% 29.78 in 10.0 mi WSW 8.1 mph - N/A   Scattered Clouds
3:16 AM 61.5 °F 52.7 °F 73% 29.77 in 10.0 mi WSW 8.1 mph - N/A   Scattered Clouds
3:35 AM 61.3 °F 51.8 °F 71% 29.77 in 10.0 mi WSW 6.9 mph - N/A   Scattered Clouds
3:55 AM 61.0 °F 52.5 °F 74% 29.77 in 10.0 mi SW 6.9 mph - N/A   Clear
4:18 AM 60.8 °F 51.3 °F 71% 29.77 in 10.0 mi West 8.1 mph - N/A   Clear
4:36 AM 60.8 °F 50.5 °F 69% 29.77 in 10.0 mi WSW 6.9 mph - N/A   Clear
4:55 AM 60.6 °F 50.5 °F 69% 29.77 in 10.0 mi West 5.8 mph - N/A   Clear
5:15 AM 59.0 °F 51.3 °F 75% 29.77 in 10.0 mi WSW 5.8 mph - N/A   Clear
5:39 AM 58.5 °F 50.9 °F 76% 29.79 in 10.0 mi WSW 4.6 mph - N/A   Clear
5:57 AM 59.0 °F 50.9 °F 74% 29.79 in 10.0 mi West 8.1 mph - N/A   Clear
6:15 AM 58.5 °F 50.0 °F 73% 29.79 in 10.0 mi West 6.9 mph - N/A   Clear
6:35 AM 59.2 °F 49.6 °F 71% 29.81 in 10.0 mi West 8.1 mph - N/A   Clear
6:36 AM 59.2 °F 49.6 °F 71% 29.81 in 10.0 mi West 8.1 mph - N/A   Clear
6:55 AM 57.2 °F 49.6 °F 76% 29.81 in 10.0 mi West 8.1 mph - N/A   Clear
7:00 AM 57.7 °F 49.8 °F 75% 29.81 in 10.0 mi West 8.1 mph - N/A   Clear
7:18 AM 58.1 °F 49.5 °F 73% 29.82 in 10.0 mi West 9.2 mph - N/A   Clear
7:36 AM 57.4 °F 49.3 °F 74% 29.82 in 10.0 mi West 8.1 mph - N/A   Clear
7:55 AM 57.2 °F 49.5 °F 75% 29.82 in 10.0 mi West 8.1 mph - N/A   Clear
7:56 AM 57.2 °F 49.3 °F 75% 29.83 in 10.0 mi West 9.2 mph - N/A   Clear
8:15 AM 57.7 °F 48.4 °F 71% 29.84 in 10.0 mi WNW 10.4 mph 17.3 mph N/A   Clear
8:16 AM 57.7 °F 48.4 °F 71% 29.84 in 10.0 mi WNW 10.4 mph 17.3 mph N/A   Clear
8:39 AM 58.6 °F 46.6 °F 64% 29.84 in 10.0 mi WNW 9.2 mph - N/A   Clear
8:57 AM 59.5 °F 46.8 °F 63% 29.85 in 10.0 mi West 11.5 mph - N/A   Clear
9:15 AM 59.9 °F 46.2 °F 61% 29.86 in 10.0 mi West 13.8 mph 21.9 mph N/A   Clear
9:35 AM 60.8 °F 46.4 °F 59% 29.87 in 10.0 mi WNW 16.1 mph 20.7 mph N/A   Clear
9:36 AM 60.8 °F 46.6 °F 59% 29.86 in 10.0 mi West 13.8 mph 20.7 mph N/A   Clear
9:55 AM 61.5 °F 44.6 °F 54% 29.87 in 10.0 mi West 17.3 mph 24.2 mph N/A   Clear
10:18 AM 62.2 °F 43.5 °F 50% 29.88 in 10.0 mi WNW 12.7 mph 23.0 mph N/A   Clear
10:36 AM 62.6 °F 41.7 °F 46% 29.89 in 10.0 mi WNW 18.4 mph 24.2 mph N/A   Clear
10:55 AM 63.3 °F 41.4 °F 45% 29.89 in 10.0 mi WNW 12.7 mph 24.2 mph N/A   Clear
11:15 AM 64.0 °F 40.1 °F 41% 29.90 in 10.0 mi WNW 16.1 mph 24.2 mph N/A   Clear
11:39 AM 65.1 °F 39.6 °F 39% 29.91 in 10.0 mi WNW 18.4 mph 25.3 mph N/A   Clear
11:57 AM 65.7 °F 40.1 °F 39% 29.91 in 10.0 mi WNW 12.7 mph 23.0 mph N/A   Scattered Clouds
12:15 PM 66.2 °F 39.4 °F 37% 29.91 in 10.0 mi West 15.0 mph 26.5 mph N/A   Scattered Clouds
12:16 PM 66.2 °F 39.6 °F 38% 29.91 in 10.0 mi West 19.6 mph 26.5 mph N/A   Scattered Clouds
12:35 PM 66.7 °F 36.9 °F 33% 29.92 in 10.0 mi West 17.3 mph 25.3 mph N/A   Mostly Cloudy
12:36 PM 66.7 °F 36.7 °F 33% 29.92 in 10.0 mi West 17.3 mph 25.3 mph N/A   Mostly Cloudy
12:55 PM 67.1 °F 37.0 °F 33% 29.92 in 10.0 mi West 21.9 mph 25.3 mph N/A   Scattered Clouds
1:00 PM 67.1 °F 36.9 °F 33% 29.92 in 10.0 mi West 20.7 mph 26.5 mph N/A   Scattered Clouds
1:18 PM 67.1 °F 38.3 °F 35% 29.92 in 10.0 mi WNW 17.3 mph 24.2 mph N/A   Scattered Clouds
1:36 PM 67.3 °F 38.8 °F 35% 29.92 in 10.0 mi WNW 11.5 mph 19.6 mph N/A   Scattered Clouds
1:55 PM 67.1 °F 37.9 °F 34% 29.92 in 10.0 mi WNW 15.0 mph 27.6 mph N/A   Clear
2:15 PM 67.1 °F 38.1 °F 34% 29.92 in 10.0 mi West 18.4 mph 27.6 mph N/A   Scattered Clouds
2:16 PM 67.3 °F 38.3 °F 35% 29.92 in 10.0 mi West 17.3 mph 27.6 mph N/A   Scattered Clouds
2:39 PM 68.9 °F 38.7 °F 33% 29.92 in 10.0 mi West 15.0 mph 23.0 mph N/A   Scattered Clouds
2:57 PM 68.2 °F 38.3 °F 33% 29.92 in 10.0 mi WNW 15.0 mph 23.0 mph N/A   Scattered Clouds
3:15 PM 68.5 °F 38.1 °F 33% 29.92 in 10.0 mi West 15.0 mph 23.0 mph N/A   Clear
3:35 PM 68.9 °F 37.9 °F 32% 29.92 in 10.0 mi West 15.0 mph 23.0 mph N/A   Scattered Clouds
3:55 PM 68.2 °F 36.7 °F 31% 29.93 in 10.0 mi West 17.3 mph 23.0 mph N/A   Clear
4:18 PM 68.0 °F 36.7 °F 32% 29.92 in 10.0 mi WNW 17.3 mph 24.2 mph N/A   Clear
4:36 PM 67.6 °F 35.8 °F 31% 29.92 in 10.0 mi West 19.6 mph 24.2 mph N/A   Clear
4:55 PM 67.1 °F 35.2 °F 31% 29.92 in 10.0 mi West 15.0 mph 23.0 mph N/A   Clear
4:56 PM 67.1 °F 35.4 °F 31% 29.92 in 10.0 mi West 16.1 mph 23.0 mph N/A   Clear
5:15 PM 66.9 °F 35.1 °F 31% 29.92 in 10.0 mi West 12.7 mph 21.9 mph N/A   Clear
5:16 PM 66.7 °F 35.1 °F 31% 29.92 in 10.0 mi West 13.8 mph 23.0 mph N/A   Clear
5:39 PM 66.2 °F 36.1 °F 33% 29.93 in 10.0 mi West 9.2 mph 18.4 mph N/A   Clear
5:57 PM 65.5 °F 35.1 °F 32% 29.92 in 10.0 mi West 12.7 mph - N/A   Clear
6:15 PM 64.9 °F 35.4 °F 33% 29.92 in 10.0 mi WNW 13.8 mph 17.3 mph N/A   Clear
6:35 PM 64.4 °F 36.7 °F 36% 29.93 in 10.0 mi West 6.9 mph - N/A   Clear
6:55 PM 63.7 °F 37.9 °F 39% 29.93 in 10.0 mi West 4.6 mph - N/A   Clear
7:18 PM 60.1 °F 40.6 °F 49% 29.94 in 10.0 mi SW 4.6 mph - N/A   Clear
7:36 PM 60.1 °F 40.5 °F 48% 29.94 in 10.0 mi SSW 4.6 mph - N/A   Clear
7:55 PM 58.6 °F 41.7 °F 53% 29.94 in 10.0 mi SSW 3.5 mph - N/A   Clear
7:56 PM 58.6 °F 41.9 °F 54% 29.94 in 10.0 mi SSW 3.5 mph - N/A   Clear
8:15 PM 52.7 °F 44.8 °F 74% 29.94 in 10.0 mi Calm Calm - N/A   Clear
8:16 PM 52.9 °F 44.8 °F 74% 29.94 in 10.0 mi Calm Calm - N/A   Clear
8:39 PM 52.7 °F 44.6 °F 74% 29.94 in 10.0 mi South 3.5 mph - N/A   Clear
8:57 PM 52.0 °F 44.8 °F 76% 29.95 in 10.0 mi South 5.8 mph - N/A   Clear
9:15 PM 52.7 °F 44.6 °F 74% 29.95 in 10.0 mi South 5.8 mph - N/A   Clear
9:35 PM 55.6 °F 43.2 °F 63% 29.96 in 10.0 mi South 6.9 mph - N/A   Clear
9:55 PM 53.8 °F 43.7 °F 69% 29.97 in 10.0 mi South 4.6 mph - N/A   Clear
10:00 PM 53.8 °F 43.7 °F 69% 29.97 in 10.0 mi South 5.8 mph - N/A   Clear
10:18 PM 54.5 °F 43.0 °F 65% 29.97 in 10.0 mi South 4.6 mph - N/A   Clear
10:36 PM 54.7 °F 43.0 °F 65% 29.97 in 10.0 mi South 5.8 mph - N/A   Clear
10:55 PM 53.6 °F 43.7 °F 69% 29.97 in 10.0 mi South 4.6 mph - N/A   Clear
10:56 PM 53.6 °F 43.9 °F 70% 29.97 in 10.0 mi South 4.6 mph - N/A   Clear
11:15 PM 52.3 °F 43.7 °F 72% 29.96 in 10.0 mi South 4.6 mph - N/A   Clear
11:39 PM 49.6 °F 44.8 °F 83% 29.94 in 10.0 mi SE 8.1 mph - N/A   Clear
11:56 PM 50.9 °F 44.6 °F 79% 29.92 in 10.0 mi SE 9.2 mph - N/A   Clear